Terminal Aerodrome Forecast
Issued by NWS Louisville, KY

Home | Current Version | Previous Version | Text Only | Print | Product List | Glossary On
Versions: 1 2 3 4 5 6 7 8 9 10 11 12
000
FTUS43 KLMK 281720
TAFSDF
TAF
KSDF 281720Z 2818/2924 15006KT P6SM BKN250
     FM290200 12003KT P6SM SCT250
     FM291300 19008KT P6SM BKN250=

USA.gov is the U.S. government's official web portal to all federal, state and local government web resources and services.